Airfield :
LOGIN :

Register | Disclaimer

   EN    FR    IT 

 










Legend :    VFR   Marginal VFR   IFR   Intensive IFR   Very Intensive IFR
Visi :
Ceiling :
>= 8 km
>= 3000ft
5 to 8 km
1000 to 3000 ft
1500m to 5 km
500 to 1000 ft
800 to 1500m
200 to 500 ft
< 800m
< 200 ft
Symbols :   Thunderstorms  Fog  Heavy snow  Heavy precipitations  Wind > 20 kt
SIGMETs :     Misc.  Thunderstorms  Icing  Turbulence  Mountain Waves  Volcanic Ashes






- Airport Elevation : 265 ft
- IATA code : FOG


LIBF - Foggia / Gino Lisa

CURRENT METAR :
  • 041350Z 08012KT 040V100 CAVOK 34/17 Q1011

EXPIRED METARs :
  • 041250Z 07015KT CAVOK 33/16 Q1012
  • 041150Z 06012KT 030V090 CAVOK 34/14 Q1012

TAF TAF LIBF
Valid from the 04 at 12:00 until the 05 at 12:00 UTC


041100Z 0412/0512 10012KT CAVOK
BECMG 0418/0420 24012KT
BECMG 0506/0509 25018G28KT



MET'MAP, your aeronautical weather chart ! - Copyright ORBIFLY December 2007 - Disclaimer

ORBIFLY MET'MAP TEAM :

Programming & Development : Alexandra Zaïnal
Concept & original design : Baudouin d'Aumeries
Assistance for programming : Marc-Olivier Méhu
Technical & hardware support : Manuel Goepfert

Contact : metmap@orbifly.com




SOURCES & CREDITS :

   NOAA